Terminal Aerodrome Forecast
Issued by NWS

Home | Current Version | Previous Version | Text Only | Print | Product List | Glossary On
Versions: 1 2 3 4 5 6 7 8 9 10 11 12 13 14 15 16 17
765
FTUS44 KBMX 262338
TAFTOI
TAF
KTOI 262338Z 2700/2724 19003KT P6SM SCT050
     FM270800 15003KT 4SM BR BKN007
     FM271000 00000KT 1SM BR OVC007
     FM271400 17005KT P6SM BKN015
     FM271600 19010KT P6SM SCT050 BKN250=

USA.gov is the U.S. government's official web portal to all federal, state and local government web resources and services.